Time;durP1;ratioP1;P1;durP2;ratioP2;P2;SDS_P1;SDS_P2;PMS_P1;PMS_P2;Temp;Humidity;BMP_temperature;BMP_pressure;BME280_temperature;BME280_humidity;BME280_pressure;Samples;Min_cycle;Max_cycle;Signal;HPM_P1;HPM_P2
2022/08/27 00:00:25;;;;;;;6.50;2.70;;;15.50;99.90;;;;;;5100405;28;20044;-49
2022/08/27 00:02:51;;;;;;;7.38;3.33;;;15.40;99.90;;;;;;5101406;28;20036;-52
2022/08/27 00:05:18;;;;;;;7.40;3.15;;;15.30;99.90;;;;;;5100619;28;20089;-51
2022/08/27 00:07:45;;;;;;;8.00;3.10;;;15.40;99.90;;;;;;5100790;28;20047;-51
2022/08/27 00:10:21;;;;;;;8.93;3.25;;;15.30;99.90;;;;;;5100849;28;20032;-52
2022/08/27 00:12:47;;;;;;;7.07;3.67;;;15.30;99.90;;;;;;5098655;28;20036;-49
2022/08/27 00:15:14;;;;;;;8.68;3.35;;;15.30;99.90;;;;;;5100869;28;20075;-50
2022/08/27 00:17:40;;;;;;;8.30;3.13;;;15.30;99.90;;;;;;5089502;28;20064;-48
2022/08/27 00:20:07;;;;;;;7.13;3.13;;;15.20;99.90;;;;;;5079166;28;20411;-50
2022/08/27 00:22:33;;;;;;;9.32;3.53;;;15.20;99.90;;;;;;5080160;28;20040;-49
2022/08/27 00:24:59;;;;;;;6.57;3.28;;;15.10;99.90;;;;;;5080282;28;20067;-49
2022/08/27 00:27:24;;;;;;;7.32;2.92;;;15.20;99.90;;;;;;5080169;28;20040;-51
2022/08/27 00:29:50;;;;;;;9.25;3.80;;;15.10;99.90;;;;;;5079704;28;20033;-50
2022/08/27 00:32:16;;;;;;;7.75;3.10;;;15.10;99.90;;;;;;5080051;28;20067;-52
2022/08/27 00:34:42;;;;;;;7.28;3.33;;;15.20;99.90;;;;;;5079602;28;20047;-52
2022/08/27 00:37:07;;;;;;;7.50;3.40;;;15.20;99.90;;;;;;5080307;28;20040;-52
2022/08/27 00:39:35;;;;;;;8.60;3.80;;;15.30;99.90;;;;;;5099513;28;20107;-50
2022/08/27 00:42:00;;;;;;;7.28;3.28;;;15.20;99.90;;;;;;5100112;28;20044;-48
2022/08/27 00:44:27;;;;;;;8.15;3.00;;;15.10;99.90;;;;;;5100284;28;20047;-51
2022/08/27 00:46:57;;;;;;;9.18;3.88;;;15.20;99.90;;;;;;5099431;28;20047;-52
2022/08/27 00:49:28;;;;;;;7.97;3.70;;;15.10;99.90;;;;;;5100166;28;20048;-49
2022/08/27 00:52:20;;;;;;;7.78;3.42;;;15.10;99.90;;;;;;5099345;28;20125;-50
2022/08/27 00:54:51;;;;;;;8.50;3.60;;;15.10;99.90;;;;;;5100177;28;20086;-51
2022/08/27 00:57:17;;;;;;;8.48;3.63;;;15.00;99.90;;;;;;5099864;28;20052;-49
2022/08/27 00:59:44;;;;;;;7.55;3.72;;;15.10;99.90;;;;;;5099068;28;20048;-52
2022/08/27 01:02:19;;;;;;;8.82;3.65;;;15.00;99.90;;;;;;5099988;28;20036;-52
2022/08/27 01:05:10;;;;;;;8.38;3.50;;;15.00;99.90;;;;;;5099180;28;20082;-50
2022/08/27 01:07:40;;;;;;;7.93;4.10;;;15.00;99.90;;;;;;5100062;28;20048;-53
2022/08/27 01:10:10;;;;;;;6.55;3.15;;;14.90;99.90;;;;;;5099573;28;20043;-52
2022/08/27 01:12:37;;;;;;;7.57;3.50;;;14.90;99.90;;;;;;5099086;28;20510;-51
2022/08/27 01:15:10;;;;;;;8.32;3.60;;;14.90;99.90;;;;;;5099250;28;20048;-49
2022/08/27 01:17:41;;;;;;;7.75;3.70;;;14.90;99.90;;;;;;5088810;28;20048;-50
2022/08/27 01:20:14;;;;;;;6.50;2.93;;;14.90;99.90;;;;;;5079384;28;20047;-52
2022/08/27 01:22:39;;;;;;;9.82;3.40;;;14.90;99.90;;;;;;5077857;28;20108;-52
2022/08/27 01:25:14;;;;;;;6.95;3.05;;;14.90;99.90;;;;;;5078739;28;20082;-53
2022/08/27 01:27:41;;;;;;;7.88;3.20;;;14.90;99.90;;;;;;5079168;28;20053;-53
2022/08/27 01:30:11;;;;;;;8.32;3.55;;;14.90;99.90;;;;;;5078436;28;20048;-50
2022/08/27 01:32:37;;;;;;;8.40;3.55;;;14.90;99.90;;;;;;5079405;28;20070;-53
2022/08/27 01:35:09;;;;;;;7.10;3.35;;;14.90;99.90;;;;;;5078464;28;20072;-51
2022/08/27 01:37:35;;;;;;;6.55;3.22;;;14.90;99.90;;;;;;5082222;28;20070;-53
2022/08/27 01:40:02;;;;;;;9.85;3.60;;;14.90;99.90;;;;;;5098956;28;20123;-52
2022/08/27 01:42:34;;;;;;;8.75;3.60;;;14.90;99.90;;;;;;5098728;28;20086;-52
2022/08/27 01:45:04;;;;;;;9.02;3.60;;;14.90;99.90;;;;;;5099192;28;20055;-53
2022/08/27 01:47:29;;;;;;;8.70;3.42;;;14.90;99.90;;;;;;5096666;28;20048;-49
2022/08/27 01:49:56;;;;;;;7.75;3.65;;;14.90;99.90;;;;;;5099443;28;20077;-50
2022/08/27 01:52:25;;;;;;;11.27;3.80;;;14.90;99.90;;;;;;5098317;28;20044;-51
2022/08/27 01:54:51;;;;;;;10.68;4.20;;;14.90;99.90;;;;;;5098529;28;20048;-52
2022/08/27 01:57:18;;;;;;;7.68;3.67;;;14.80;99.90;;;;;;5098902;28;20040;-49
2022/08/27 01:59:44;;;;;;;8.40;4.05;;;14.80;99.90;;;;;;5098538;28;20032;-49
2022/08/27 02:02:12;;;;;;;8.75;3.53;;;14.90;99.90;;;;;;5098602;28;20048;-50
2022/08/27 02:04:37;;;;;;;8.40;3.53;;;14.80;99.90;;;;;;5098045;28;20044;-51
2022/08/27 02:07:04;;;;;;;8.07;3.70;;;14.80;99.90;;;;;;5097503;28;20048;-51
2022/08/27 02:09:30;;;;;;;7.03;3.97;;;14.80;99.90;;;;;;5098118;28;20044;-49
2022/08/27 02:11:56;;;;;;;8.45;3.42;;;14.90;99.90;;;;;;5098471;28;20070;-52
2022/08/27 02:14:23;;;;;;;9.77;4.00;;;14.90;99.90;;;;;;5098422;28;20036;-52
2022/08/27 02:16:49;;;;;;;8.27;3.97;;;14.90;99.90;;;;;;5094336;28;20037;-53
2022/08/27 02:19:15;;;;;;;8.85;3.90;;;14.90;99.90;;;;;;5077068;28;20051;-52
2022/08/27 02:21:41;;;;;;;6.43;3.38;;;14.90;99.90;;;;;;5077075;28;20065;-52
2022/08/27 02:24:07;;;;;;;8.00;3.70;;;14.90;99.90;;;;;;5078366;28;20052;-51
2022/08/27 02:26:32;;;;;;;6.80;3.35;;;14.90;99.90;;;;;;5076483;28;20040;-52
2022/08/27 02:28:58;;;;;;;7.55;3.75;;;15.00;99.90;;;;;;5078223;28;20047;-52
2022/08/27 02:31:24;;;;;;;6.43;3.50;;;14.90;99.90;;;;;;5078054;28;20043;-51
2022/08/27 02:33:51;;;;;;;8.15;4.38;;;14.90;99.90;;;;;;5077536;28;20045;-52
2022/08/27 02:36:17;;;;;;;8.27;4.20;;;14.90;99.90;;;;;;5078215;28;20048;-52
2022/08/27 02:38:43;;;;;;;8.85;3.47;;;14.90;99.90;;;;;;5089643;28;20617;-50
2022/08/27 02:41:08;;;;;;;8.48;4.28;;;14.90;99.90;;;;;;5098646;28;20058;-50
2022/08/27 02:43:34;;;;;;;8.05;4.13;;;14.90;99.90;;;;;;5097678;28;20134;-53
2022/08/27 02:46:01;;;;;;;8.30;3.85;;;14.90;99.90;;;;;;5098349;28;20046;-52
2022/08/27 02:48:27;;;;;;;6.03;3.28;;;15.00;99.90;;;;;;5096739;28;20044;-52
2022/08/27 02:50:53;;;;;;;6.70;3.60;;;15.00;99.90;;;;;;5097604;28;20055;-53
2022/08/27 02:53:19;;;;;;;7.00;3.42;;;14.90;99.90;;;;;;5097793;28;20067;-51
2022/08/27 02:55:45;;;;;;;9.75;3.60;;;14.90;99.90;;;;;;5097500;28;20039;-52
2022/08/27 02:58:14;;;;;;;10.43;4.10;;;14.90;99.90;;;;;;5098343;28;20044;-51
2022/08/27 03:00:40;;;;;;;8.63;4.05;;;14.90;99.90;;;;;;5097577;28;20056;-51
2022/08/27 03:03:05;;;;;;;7.47;3.78;;;15.00;99.90;;;;;;5096840;28;20557;-50
2022/08/27 03:05:31;;;;;;;7.22;3.95;;;14.90;99.90;;;;;;5097822;28;20043;-51
2022/08/27 03:07:58;;;;;;;7.93;3.70;;;14.90;99.90;;;;;;5097599;28;20039;-53
2022/08/27 03:10:24;;;;;;;7.57;4.25;;;14.80;99.90;;;;;;5096513;28;20056;-50
2022/08/27 03:12:50;;;;;;;7.88;3.70;;;14.80;99.90;;;;;;5096012;28;20107;-51
2022/08/27 03:15:18;;;;;;;7.90;4.10;;;14.80;99.90;;;;;;5096797;28;20051;-53
2022/08/27 03:20:28;;;;;;;7.40;3.78;;;14.70;99.90;;;;;;5077569;28;20055;-50
2022/08/27 03:22:54;;;;;;;8.70;3.72;;;14.70;99.90;;;;;;5077936;28;20052;-53
2022/08/27 03:25:20;;;;;;;7.10;3.70;;;14.80;99.90;;;;;;5075916;28;20047;-54
2022/08/27 03:27:46;;;;;;;7.63;3.58;;;14.70;99.90;;;;;;5077478;28;20052;-50
2022/08/27 03:30:15;;;;;;;8.90;3.97;;;14.70;99.90;;;;;;5077116;28;20048;-52
2022/08/27 03:32:41;;;;;;;8.43;3.92;;;14.70;99.90;;;;;;5078090;28;20033;-52
2022/08/27 03:35:07;;;;;;;9.30;3.90;;;14.70;99.90;;;;;;5081072;28;20060;-50
2022/08/27 03:37:33;;;;;;;7.10;3.30;;;14.60;99.90;;;;;;5084468;28;20044;-49
2022/08/27 03:39:59;;;;;;;7.45;3.60;;;14.60;99.90;;;;;;5101646;28;20044;-54
2022/08/27 03:42:25;;;;;;;7.72;4.00;;;14.50;99.90;;;;;;5101115;28;20546;-51
2022/08/27 03:44:51;;;;;;;7.63;3.42;;;14.50;99.90;;;;;;5101412;28;20044;-51
2022/08/27 03:47:17;;;;;;;9.23;3.53;;;14.40;99.90;;;;;;5099189;28;20040;-51
2022/08/27 03:49:44;;;;;;;7.50;3.30;;;14.50;99.90;;;;;;5101677;28;20054;-50
2022/08/27 03:52:10;;;;;;;7.32;3.38;;;14.50;99.90;;;;;;5100498;28;20101;-51
2022/08/27 03:54:39;;;;;;;6.63;3.55;;;14.30;99.90;;;;;;5101462;28;20059;-52
2022/08/27 03:57:05;;;;;;;7.70;3.50;;;14.40;99.90;;;;;;5101253;28;20048;-57
2022/08/27 03:59:32;;;;;;;8.18;3.40;;;14.30;99.90;;;;;;5100999;28;20040;-52
2022/08/27 04:01:59;;;;;;;7.15;3.67;;;14.40;99.90;;;;;;5099795;28;20407;-53
2022/08/27 04:04:24;;;;;;;7.78;3.20;;;14.40;99.90;;;;;;5100527;28;20123;-53
2022/08/27 04:06:50;;;;;;;6.22;3.38;;;14.30;99.90;;;;;;5101309;28;20545;-52
2022/08/27 04:09:17;;;;;;;9.73;3.42;;;14.40;99.90;;;;;;5099132;28;20089;-53
2022/08/27 04:11:42;;;;;;;7.32;3.47;;;14.30;99.90;;;;;;5101105;28;20070;-53
2022/08/27 04:14:09;;;;;;;7.57;3.40;;;14.30;99.90;;;;;;5099552;28;20543;-52
2022/08/27 04:16:35;;;;;;;6.93;3.47;;;14.30;99.90;;;;;;5098642;28;20044;-49
2022/08/27 04:19:02;;;;;;;7.45;3.45;;;14.30;99.90;;;;;;5080542;28;20048;-52
2022/08/27 04:21:28;;;;;;;8.05;3.25;;;14.30;99.90;;;;;;5079766;28;20569;-51
2022/08/27 04:23:55;;;;;;;7.75;3.55;;;14.30;99.90;;;;;;5080843;28;20047;-52
2022/08/27 04:26:21;;;;;;;7.13;3.00;;;14.30;99.90;;;;;;5080057;28;20064;-53
2022/08/27 04:28:47;;;;;;;6.00;2.70;;;14.40;99.90;;;;;;5080575;28;20051;-50
2022/08/27 04:31:13;;;;;;;6.70;3.00;;;14.50;99.90;;;;;;5078923;28;20040;-52
2022/08/27 04:33:39;;;;;;;7.60;2.70;;;14.40;99.90;;;;;;5079821;28;20044;-52
2022/08/27 04:36:08;;;;;;;7.22;2.88;;;14.50;99.90;;;;;;5080217;28;20040;-50
2022/08/27 04:38:35;;;;;;;6.88;3.35;;;14.50;99.90;;;;;;5090858;28;20051;-53
2022/08/27 04:41:20;;;;;;;9.02;3.40;;;14.50;99.90;;;;;;5099259;28;20044;-50
2022/08/27 04:43:57;;;;;;;7.28;2.95;;;14.50;99.90;;;;;;5099725;28;20073;-50
2022/08/27 04:46:26;;;;;;;7.07;3.00;;;14.60;99.90;;;;;;5100026;28;20525;-51
2022/08/27 04:48:52;;;;;;;6.55;2.75;;;14.70;99.90;;;;;;5100379;28;20074;-51
2022/08/27 04:51:19;;;;;;;6.72;2.58;;;14.70;99.90;;;;;;5099675;28;20054;-51
2022/08/27 04:53:45;;;;;;;9.50;2.92;;;14.80;99.90;;;;;;5100138;28;20127;-53
2022/08/27 04:56:15;;;;;;;8.23;2.53;;;14.80;99.90;;;;;;5098036;28;20056;-51
2022/08/27 04:58:41;;;;;;;11.00;3.13;;;14.90;99.90;;;;;;5100159;28;20040;-53
2022/08/27 05:01:07;;;;;;;7.80;2.78;;;14.90;99.90;;;;;;5099841;28;20099;-53
2022/08/27 05:03:33;;;;;;;6.80;2.80;;;14.90;99.90;;;;;;5099680;28;20033;-54
2022/08/27 05:06:04;;;;;;;6.75;2.83;;;14.90;99.90;;;;;;5100055;28;20086;-54
2022/08/27 05:08:30;;;;;;;8.00;3.25;;;15.00;99.90;;;;;;5097730;28;20044;-54
2022/08/27 05:10:56;;;;;;;7.93;3.55;;;15.00;99.90;;;;;;5097419;28;20588;-53
2022/08/27 05:13:23;;;;;;;8.80;3.33;;;15.20;99.90;;;;;;5095639;28;20038;-51
2022/08/27 05:15:55;;;;;;;9.40;3.35;;;15.20;99.90;;;;;;5096678;28;20040;-55
2022/08/27 05:18:21;;;;;;;7.07;2.70;;;15.30;99.90;;;;;;5083526;28;20036;-54
2022/08/27 05:20:48;;;;;;;8.30;3.35;;;15.20;99.90;;;;;;5084084;28;20037;-54
2022/08/27 05:23:16;;;;;;;8.00;2.70;;;15.30;99.90;;;;;;5087077;28;20498;-54
2022/08/27 05:25:44;;;;;;;7.57;2.65;;;15.30;99.90;;;;;;5095546;28;20048;-54
2022/08/27 05:28:12;;;;;;;7.10;2.47;;;15.50;99.90;;;;;;5096320;28;20062;-55
2022/08/27 05:30:43;;;;;;;6.40;2.35;;;15.40;99.90;;;;;;5094009;28;20515;-54
2022/08/27 05:33:11;;;;;;;7.80;2.50;;;15.50;99.90;;;;;;5095203;28;20056;-54
2022/08/27 05:35:57;;;;;;;5.50;2.25;;;15.50;99.90;;;;;;5095600;28;20048;-54
2022/08/27 05:38:25;;;;;;;5.28;2.25;;;15.50;99.90;;;;;;5095114;28;20062;-54
2022/08/27 05:41:12;;;;;;;6.93;2.60;;;15.50;99.90;;;;;;5095930;28;20048;-54
2022/08/27 05:43:40;;;;;;;8.02;2.58;;;15.50;99.90;;;;;;5095711;28;20100;-53
2022/08/27 05:46:11;;;;;;;6.00;2.40;;;15.60;99.90;;;;;;5095781;28;20454;-51
2022/08/27 05:48:38;;;;;;;6.22;2.38;;;15.50;99.90;;;;;;5095735;28;20064;-52
2022/08/27 05:51:22;;;;;;;5.50;2.40;;;15.60;99.90;;;;;;5088740;28;20040;-54
2022/08/27 05:53:48;;;;;;;5.82;2.45;;;15.50;99.90;;;;;;5085318;28;20138;-54
2022/08/27 05:56:17;;;;;;;5.95;2.67;;;15.50;99.90;;;;;;5085964;28;20127;-53
2022/08/27 06:01:28;;;;;;;6.47;2.65;;;15.60;99.90;;;;;;5095528;28;20097;-53
2022/08/27 06:03:54;;;;;;;9.05;3.50;;;15.60;99.90;;;;;;5093492;28;20048;-53
2022/08/27 06:06:21;;;;;;;8.88;2.90;;;15.60;99.90;;;;;;5095520;28;20065;-53
2022/08/27 06:08:48;;;;;;;7.28;2.90;;;15.70;99.90;;;;;;5094568;28;20048;-52
2022/08/27 06:11:14;;;;;;;8.13;3.03;;;15.80;99.90;;;;;;5095026;28;20052;-53
2022/08/27 06:13:40;;;;;;;7.25;2.83;;;15.80;99.90;;;;;;5094786;28;20055;-54
2022/08/27 06:16:08;;;;;;;7.10;3.00;;;15.90;99.90;;;;;;5095137;28;20040;-53
2022/08/27 06:18:35;;;;;;;7.60;2.50;;;15.90;99.90;;;;;;5077255;28;20048;-53
2022/08/27 06:21:01;;;;;;;6.60;2.75;;;16.00;99.90;;;;;;5074363;28;20068;-53
2022/08/27 06:23:28;;;;;;;8.48;3.13;;;16.10;99.90;;;;;;5074556;28;20040;-54
2022/08/27 06:25:55;;;;;;;7.10;2.67;;;16.10;99.90;;;;;;5074324;28;20110;-53
2022/08/27 06:28:23;;;;;;;8.07;2.65;;;16.20;99.90;;;;;;5077588;28;20044;-57
2022/08/27 06:30:49;;;;;;;6.78;2.85;;;16.20;99.90;;;;;;5083321;28;20469;-52
2022/08/27 06:33:15;;;;;;;7.22;2.72;;;16.40;99.90;;;;;;5083152;28;20269;-53
2022/08/27 06:35:41;;;;;;;7.90;2.55;;;16.40;99.90;;;;;;5085114;28;20103;-53
2022/08/27 06:38:07;;;;;;;8.68;2.50;;;16.40;99.90;;;;;;5084326;28;20067;-54
2022/08/27 06:40:33;;;;;;;8.30;1.90;;;16.50;99.90;;;;;;5084399;28;20553;-52
2022/08/27 06:42:59;;;;;;;6.65;1.90;;;16.60;99.90;;;;;;5081966;28;20052;-52
2022/08/27 06:45:25;;;;;;;7.90;2.35;;;16.70;99.90;;;;;;5077908;28;20076;-52
2022/08/27 06:47:51;;;;;;;8.20;2.00;;;16.80;99.90;;;;;;5073745;28;20106;-52
2022/08/27 06:50:19;;;;;;;10.20;2.05;;;16.90;99.90;;;;;;5074608;28;20036;-52
2022/08/27 06:52:46;;;;;;;7.80;2.00;;;17.00;99.90;;;;;;5074088;28;20448;-53
2022/08/27 06:55:12;;;;;;;7.30;1.95;;;17.10;99.90;;;;;;5074194;28;20048;-52
2022/08/27 06:57:37;;;;;;;9.27;2.20;;;17.20;99.90;;;;;;5074429;28;20048;-53
2022/08/27 07:00:05;;;;;;;5.78;1.50;;;17.20;99.90;;;;;;5055604;28;20052;-52
2022/08/27 07:02:31;;;;;;;9.10;2.08;;;17.30;99.90;;;;;;5074735;28;20062;-52
2022/08/27 07:04:57;;;;;;;11.85;2.50;;;17.30;99.90;;;;;;5074011;28;20052;-53
2022/08/27 07:07:22;;;;;;;9.20;2.40;;;17.40;99.90;;;;;;5075848;28;20092;-52
2022/08/27 07:09:48;;;;;;;6.93;2.17;;;17.50;99.90;;;;;;5078555;28;20052;-53
2022/08/27 07:12:14;;;;;;;9.77;1.83;;;17.50;99.90;;;;;;5077616;28;20057;-53
2022/08/27 07:14:40;;;;;;;7.60;2.22;;;17.60;99.90;;;;;;5077181;28;20441;-53
2022/08/27 07:17:07;;;;;;;6.32;1.67;;;17.70;99.90;;;;;;5083366;28;20043;-52
2022/08/27 07:19:37;;;;;;;8.32;1.90;;;17.80;99.90;;;;;;5098859;28;20153;-52
2022/08/27 07:22:03;;;;;;;7.00;1.58;;;17.80;99.90;;;;;;5098185;28;20052;-52
2022/08/27 07:24:29;;;;;;;7.72;1.60;;;17.90;99.90;;;;;;5098113;28;20040;-52
2022/08/27 07:26:54;;;;;;;8.05;1.70;;;18.00;99.90;;;;;;5098225;28;20108;-52
2022/08/27 07:29:20;;;;;;;7.80;1.77;;;18.10;99.90;;;;;;5097890;28;20134;-53
2022/08/27 07:31:46;;;;;;;5.88;1.73;;;18.20;99.90;;;;;;5097066;28;20112;-53
2022/08/27 07:34:12;;;;;;;8.77;1.73;;;18.20;99.90;;;;;;5097745;28;20064;-53
2022/08/27 07:36:39;;;;;;;6.65;1.30;;;18.30;99.90;;;;;;5096623;28;20059;-53
2022/08/27 07:39:06;;;;;;;8.70;1.77;;;18.30;99.90;;;;;;5097382;28;20057;-52
2022/08/27 07:44:23;;;;;;;5.85;1.40;;;18.40;99.90;;;;;;5089661;28;20044;-53
2022/08/27 07:44:25;;;;;;;9.63;1.77;;;18.50;99.90;;;;;;5091821;28;20139;-53
2022/08/27 07:46:52;;;;;;;8.48;1.60;;;18.50;99.90;;;;;;5096418;28;20056;-49
2022/08/27 07:49:18;;;;;;;10.93;1.98;;;18.50;99.90;;;;;;5100905;28;20118;-51
2022/08/27 07:51:44;;;;;;;7.82;1.40;;;18.60;99.90;;;;;;5099032;28;20044;-53
2022/08/27 07:54:09;;;;;;;10.38;1.80;;;18.60;99.90;;;;;;5100350;28;20071;-53
2022/08/27 07:56:35;;;;;;;7.40;2.22;;;18.60;99.90;;;;;;5100752;28;20048;-53
2022/08/27 07:59:01;;;;;;;7.35;1.40;;;18.60;99.90;;;;;;5100824;28;20052;-52
2022/08/27 08:01:28;;;;;;;6.57;1.50;;;18.60;99.90;;;;;;5100926;28;20036;-53
2022/08/27 08:03:54;;;;;;;5.18;1.40;;;18.60;99.90;;;;;;5100546;28;20052;-52
2022/08/27 08:06:20;;;;;;;9.38;1.30;;;18.70;99.90;;;;;;5101045;28;20059;-53
2022/08/27 08:08:46;;;;;;;9.20;1.85;;;18.70;99.90;;;;;;5098874;28;20044;-53
2022/08/27 08:11:15;;;;;;;6.35;1.38;;;18.70;99.90;;;;;;5099971;28;20044;-53
2022/08/27 08:13:43;;;;;;;7.32;1.33;;;18.70;99.90;;;;;;5100693;28;20607;-52
2022/08/27 08:16:09;;;;;;;6.88;1.40;;;18.80;99.90;;;;;;5099068;28;20059;-51
2022/08/27 08:18:36;;;;;;;6.45;1.33;;;18.80;99.90;;;;;;5081684;28;20044;-53
2022/08/27 08:21:05;;;;;;;8.45;1.60;;;18.90;99.90;;;;;;5080040;28;20049;-53
2022/08/27 08:23:32;;;;;;;8.15;1.60;;;18.90;99.90;;;;;;5080588;28;20117;-52
2022/08/27 08:25:58;;;;;;;6.50;1.80;;;18.90;99.90;;;;;;5079759;28;20041;-52
2022/08/27 08:28:26;;;;;;;5.65;1.30;;;18.90;99.90;;;;;;5080489;28;20068;-53
2022/08/27 08:30:53;;;;;;;8.30;1.60;;;18.90;99.90;;;;;;5079988;28;20052;-53
2022/08/27 08:33:19;;;;;;;9.23;1.38;;;19.00;99.90;;;;;;5080186;28;20383;-53
2022/08/27 08:35:45;;;;;;;8.60;1.70;;;19.00;99.90;;;;;;5080173;28;20506;-53
2022/08/27 08:38:10;;;;;;;8.82;1.52;;;19.10;99.90;;;;;;5087586;28;20066;-53
2022/08/27 08:40:41;;;;;;;7.88;1.50;;;19.00;99.90;;;;;;5098853;28;20063;-53
2022/08/27 08:43:26;;;;;;;7.53;1.48;;;19.10;99.90;;;;;;5099314;28;20048;-52
2022/08/27 08:45:54;;;;;;;8.68;1.50;;;19.20;99.90;;;;;;5100456;28;20042;-53
2022/08/27 08:48:22;;;;;;;8.73;1.38;;;19.20;99.90;;;;;;5100428;28;20077;-53
2022/08/27 08:51:21;;;;;;;6.72;1.27;;;19.20;99.90;;;;;;5099793;28;20047;-53
2022/08/27 08:53:58;;;;;;;9.57;1.48;;;19.30;99.90;;;;;;5099903;28;20056;-52
2022/08/27 08:56:42;;;;;;;5.82;1.50;;;19.30;99.90;;;;;;5098272;28;20052;-51
2022/08/27 08:59:19;;;;;;;7.90;1.27;;;19.20;99.90;;;;;;5099874;28;20059;-54
2022/08/27 09:01:45;;;;;;;7.57;1.50;;;19.20;99.90;;;;;;5099361;28;20039;-53
2022/08/27 09:04:11;;;;;;;9.95;1.90;;;19.20;99.90;;;;;;5094373;28;20100;-53
2022/08/27 09:06:51;;;;;;;6.18;1.52;;;19.10;99.90;;;;;;5088738;28;20043;-53
2022/08/27 09:09:43;;;;;;;10.27;1.83;;;19.10;99.90;;;;;;5087258;28;20040;-54
2022/08/27 09:12:13;;;;;;;10.07;1.55;;;19.00;99.90;;;;;;5087202;28;20086;-54
2022/08/27 09:14:52;;;;;;;7.55;1.63;;;19.00;99.90;;;;;;5088091;28;20078;-53
2022/08/27 09:17:18;;;;;;;8.77;1.30;;;19.00;99.90;;;;;;5086494;28;20051;-52
2022/08/27 09:19:44;;;;;;;6.20;1.30;;;19.00;99.90;;;;;;5090519;28;20036;-52
2022/08/27 09:22:28;;;;;;;8.70;1.40;;;18.90;99.90;;;;;;5087821;28;20512;-53
2022/08/27 09:25:04;;;;;;;5.95;1.27;;;19.00;99.90;;;;;;5088025;28;20056;-53
2022/08/27 09:27:31;;;;;;;7.80;1.45;;;19.00;99.90;;;;;;5088136;28;20066;-53
2022/08/27 09:29:56;;;;;;;7.47;1.30;;;19.00;99.90;;;;;;5087252;28;20051;-54
2022/08/27 09:32:30;;;;;;;7.82;1.50;;;19.10;99.90;;;;;;5086448;28;20050;-56
2022/08/27 09:35:02;;;;;;;5.80;1.17;;;19.20;99.90;;;;;;5086798;28;20036;-53
2022/08/27 09:37:46;;;;;;;;;;;19.30;99.90;;;;;;5094751;28;20052;-49
2022/08/27 09:40:24;;;;;;;6.53;1.63;;;19.50;99.90;;;;;;5086251;28;19962;-56
2022/08/27 09:42:53;;;;;;;6.60;1.20;;;19.70;99.90;;;;;;5080662;28;20052;-50
2022/08/27 09:45:22;;;;;;;8.70;1.58;;;19.90;99.90;;;;;;5077050;28;20110;-51
2022/08/27 09:47:50;;;;;;;7.28;1.40;;;20.10;99.90;;;;;;5077882;28;20127;-49
2022/08/27 09:50:19;;;;;;;6.65;1.27;;;20.20;99.90;;;;;;5078503;28;20453;-53
2022/08/27 09:52:57;;;;;;;5.45;1.10;;;20.10;99.90;;;;;;5078308;28;20117;-51
2022/08/27 09:55:47;;;;;;;4.05;0.90;;;20.20;99.90;;;;;;5076294;28;20044;-52
2022/08/27 09:58:43;;;;;;;7.18;1.38;;;20.40;99.90;;;;;;5077479;28;20519;-51
2022/08/27 10:01:22;;;;;;;6.70;1.15;;;20.80;99.90;;;;;;5078346;28;20074;-50
2022/08/27 10:03:48;;;;;;;7.43;1.33;;;20.90;99.90;;;;;;5077615;28;20048;-50
2022/08/27 10:06:28;;;;;;;5.88;1.20;;;21.00;99.90;;;;;;5077549;28;20041;-49
2022/08/27 10:09:02;;;;;;;7.55;1.60;;;20.90;99.90;;;;;;5077278;28;20194;-50
2022/08/27 10:11:47;;;;;;;8.77;2.22;;;20.80;99.90;;;;;;5078561;28;20040;-52
2022/08/27 10:14:33;;;;;;;5.50;1.15;;;21.00;99.90;;;;;;5078114;28;20048;-51
2022/08/27 10:17:01;;;;;;;6.80;1.23;;;21.00;99.90;;;;;;5081985;28;20108;-51
2022/08/27 10:19:33;;;;;;;6.72;1.05;;;20.80;99.90;;;;;;5098544;28;20081;-50
2022/08/27 10:22:04;;;;;;;;;;;20.60;99.90;;;;;;5098494;28;20032;-50
2022/08/27 10:25:13;;;;;;;6.85;1.17;;;20.70;99.90;;;;;;5098237;28;19924;-47
2022/08/27 10:28:21;;;;;;;5.18;1.15;;;20.80;99.90;;;;;;5098291;28;20074;-50
2022/08/27 10:30:56;;;;;;;7.68;1.30;;;20.80;99.90;;;;;;5086864;28;20135;-48
2022/08/27 10:33:33;;;;;;;6.72;1.27;;;20.70;99.90;;;;;;5092874;28;20082;-51
2022/08/27 10:36:08;;;;;;;6.05;1.30;;;20.70;99.90;;;;;;5098374;28;20040;-51
2022/08/27 10:38:43;;;;;;;6.50;1.17;;;20.40;99.90;;;;;;5097000;28;20048;-50
2022/08/27 10:41:33;;;;;;;5.18;0.95;;;20.40;99.90;;;;;;5098145;28;20048;-50
2022/08/27 10:44:34;;;;;;;5.70;0.98;;;20.30;99.90;;;;;;5097686;28;20096;-49
2022/08/27 10:47:29;;;;;;;8.02;1.20;;;20.30;99.90;;;;;;5096998;28;20098;-49
2022/08/27 10:50:06;;;;;;;4.72;1.00;;;20.40;99.90;;;;;;5097654;28;20150;-51
2022/08/27 10:52:44;;;;;;;6.03;1.60;;;20.70;99.90;;;;;;5097951;28;20048;-50
2022/08/27 10:55:21;;;;;;;7.03;1.10;;;20.90;99.90;;;;;;5097349;28;20583;-49
2022/08/27 10:58:18;;;;;;;5.13;0.88;;;21.00;99.90;;;;;;5096003;28;20062;-49
2022/08/27 11:00:47;;;;;;;4.50;1.10;;;21.20;99.90;;;;;;5094446;28;20054;-52
2022/08/27 11:03:39;;;;;;;5.88;0.95;;;21.60;99.90;;;;;;5094553;28;20066;-49
2022/08/27 11:06:45;;;;;;;6.07;1.13;;;21.60;99.90;;;;;;5094696;28;20084;-52
2022/08/27 11:09:17;;;;;;;10.20;1.63;;;21.30;99.90;;;;;;5086991;28;20056;-48
2022/08/27 11:11:59;;;;;;;5.55;1.80;;;21.00;99.90;;;;;;5094489;28;20063;-51
2022/08/27 11:14:31;;;;;;;;;;;20.80;99.90;;;;;;5095294;28;20044;-50
2022/08/27 11:17:05;;;;;;;7.50;1.00;;;20.80;99.90;;;;;;5089338;28;19942;-49
2022/08/27 11:19:44;;;;;;;6.57;1.05;;;20.60;99.90;;;;;;5074529;28;20049;-49
2022/08/27 11:22:21;;;;;;;8.57;1.40;;;20.70;99.90;;;;;;5073825;28;20145;-50
2022/08/27 11:24:55;;;;;;;6.43;1.08;;;21.00;99.90;;;;;;5073357;28;20112;-49
2022/08/27 11:27:25;;;;;;;7.68;1.15;;;21.00;99.90;;;;;;5074273;28;20068;-51
2022/08/27 11:29:55;;;;;;;8.18;1.25;;;20.90;99.90;;;;;;5073209;28;20101;-52
2022/08/27 11:32:21;;;;;;;5.22;1.30;;;20.80;99.90;;;;;;5074506;28;20458;-51
2022/08/27 11:34:58;;;;;;;5.47;1.13;;;20.90;99.90;;;;;;5073179;28;20036;-49
2022/08/27 11:37:39;;;;;;;6.55;1.40;;;21.00;99.90;;;;;;5075620;28;20052;-49
2022/08/27 11:40:32;;;;;;;6.28;1.30;;;20.80;99.90;;;;;;5094218;28;20048;-49
2022/08/27 11:43:04;;;;;;;7.35;1.35;;;20.70;99.90;;;;;;5093809;28;20071;-52
2022/08/27 11:45:39;;;;;;;8.27;1.25;;;20.80;99.90;;;;;;5093723;28;20062;-49
2022/08/27 11:48:23;;;;;;;6.72;1.00;;;20.90;99.90;;;;;;5094226;28;20048;-50
2022/08/27 11:50:58;;;;;;;7.32;1.30;;;21.00;99.90;;;;;;5093641;28;20580;-50
2022/08/27 11:53:27;;;;;;;4.65;0.80;;;20.90;99.90;;;;;;5094062;28;20078;-52
2022/08/27 11:55:53;;;;;;;6.88;0.90;;;21.10;99.90;;;;;;5097061;28;20059;-52
2022/08/27 11:58:20;;;;;;;6.93;1.13;;;21.10;99.90;;;;;;5097846;28;20181;-49
2022/08/27 12:00:47;;;;;;;6.20;1.00;;;21.10;99.90;;;;;;5097786;28;20043;-51
2022/08/27 12:03:19;;;;;;;6.60;1.20;;;21.40;99.90;;;;;;5097346;28;20055;-50
2022/08/27 12:06:07;;;;;;;9.32;1.48;;;21.60;99.90;;;;;;5098892;28;20056;-52
2022/08/27 12:08:34;;;;;;;7.00;1.30;;;21.60;99.90;;;;;;5099567;28;20060;-49
2022/08/27 12:11:11;;;;;;;5.28;1.00;;;21.50;99.90;;;;;;5101046;28;20059;-52
2022/08/27 12:13:54;;;;;;;6.10;1.10;;;21.40;99.90;;;;;;5100424;28;20036;-49
2022/08/27 12:16:38;;;;;;;5.53;1.00;;;21.30;99.90;;;;;;5100169;28;20079;-52
2022/08/27 12:19:40;;;;;;;6.72;1.20;;;21.20;99.90;;;;;;5079860;28;20044;-49
2022/08/27 12:23:38;;;;;;;5.00;1.27;;;21.50;99.90;;;;;;5080294;28;20048;-51
2022/08/27 12:25:21;;;;;;;5.60;0.95;;;21.70;99.90;;;;;;5062579;28;20869;-50
2022/08/27 12:27:59;;;;;;;6.05;1.05;;;21.50;99.90;;;;;;5080425;28;20043;-48
2022/08/27 12:30:48;;;;;;;7.82;1.10;;;21.60;99.90;;;;;;5079461;28;20112;-48
2022/08/27 12:33:31;;;;;;;5.45;0.82;;;21.60;99.90;;;;;;5079891;28;20045;-48
2022/08/27 12:36:24;;;;;;;5.38;0.80;;;21.30;99.90;;;;;;5080219;28;20046;-52
2022/08/27 12:38:53;;;;;;;6.60;0.90;;;21.20;99.90;;;;;;5091209;28;20059;-49
2022/08/27 12:41:37;;;;;;;6.20;1.02;;;21.40;99.90;;;;;;5098845;28;20066;-50
2022/08/27 12:44:08;;;;;;;5.70;1.15;;;21.50;99.90;;;;;;5100261;28;20064;-52
2022/08/27 12:46:43;;;;;;;5.50;1.02;;;21.60;99.90;;;;;;5097701;28;20055;-52
2022/08/27 12:49:09;;;;;;;6.53;1.58;;;21.70;99.90;;;;;;5099806;28;20056;-52
2022/08/27 12:51:36;;;;;;;6.10;1.60;;;21.50;99.90;;;;;;5090241;28;20166;-51
2022/08/27 12:54:24;;;;;;;6.32;1.20;;;21.50;99.90;;;;;;5091256;28;20057;-50
2022/08/27 12:57:17;;;;;;;7.70;1.70;;;21.70;99.90;;;;;;5089321;28;20048;-49
2022/08/27 12:59:51;;;;;;;7.25;1.50;;;21.90;99.90;;;;;;5087866;28;20043;-51
2022/08/27 13:02:22;;;;;;;6.97;1.48;;;22.10;99.90;;;;;;5088508;28;20036;-52
2022/08/27 13:04:48;;;;;;;7.72;1.40;;;22.00;99.90;;;;;;5087811;28;20044;-51
2022/08/27 13:07:31;;;;;;;7.22;1.30;;;22.00;99.90;;;;;;5089950;28;20481;-50
2022/08/27 13:10:09;;;;;;;6.50;1.52;;;22.00;99.90;;;;;;5088782;28;20080;-52
2022/08/27 13:12:35;;;;;;;9.40;1.52;;;22.10;99.90;;;;;;5087790;28;20517;-49